createdAt,value
2022-11-16T00:00:01.500Z,13.60
2022-11-16T00:04:07.279Z,13.60
2022-11-16T00:08:11.501Z,13.60
2022-11-16T00:12:14.338Z,13.60
2022-11-16T00:16:18.315Z,13.50
2022-11-16T00:20:21.175Z,13.50
2022-11-16T00:24:25.467Z,13.50
2022-11-16T00:28:29.180Z,13.50
2022-11-16T00:32:33.526Z,13.50
2022-11-16T00:36:36.471Z,13.50
2022-11-16T00:40:40.704Z,13.40
2022-11-16T00:44:43.556Z,13.40
2022-11-16T00:48:46.465Z,13.40
2022-11-16T00:52:49.368Z,13.40
2022-11-16T00:56:53.714Z,13.30
2022-11-16T01:00:56.633Z,13.30
2022-11-16T01:04:59.524Z,13.30
2022-11-16T01:09:02.683Z,13.30
2022-11-16T01:13:07.094Z,13.20
2022-11-16T01:17:10.226Z,13.20
2022-11-16T01:21:13.104Z,13.20
2022-11-16T01:25:16.390Z,13.10
2022-11-16T01:29:20.621Z,13.10
2022-11-16T01:33:23.597Z,13.10
2022-11-16T01:37:27.053Z,13.10
2022-11-16T01:41:30.333Z,13.10
2022-11-16T01:45:36.419Z,13.10
2022-11-16T01:49:42.327Z,13.10
2022-11-16T01:53:45.279Z,13.00
2022-11-16T01:57:49.003Z,13.10
2022-11-16T02:01:53.275Z,13.00
2022-11-16T02:06:02.070Z,13.00
2022-11-16T02:10:11.194Z,13.00
2022-11-16T02:14:20.404Z,13.00
2022-11-16T02:18:27.452Z,13.00
2022-11-16T02:22:39.800Z,13.00
2022-11-16T02:26:53.909Z,13.00
2022-11-16T02:30:59.146Z,12.90
2022-11-16T02:35:04.516Z,12.90
2022-11-16T02:39:08.839Z,12.90
2022-11-16T02:43:13.262Z,12.90
2022-11-16T02:47:19.108Z,12.90
2022-11-16T02:51:22.784Z,12.90
2022-11-16T02:55:26.772Z,12.90
2022-11-16T02:59:31.741Z,12.90
2022-11-16T03:03:39.034Z,12.90
2022-11-16T03:07:45.250Z,12.80
2022-11-16T03:12:00.514Z,12.80
2022-11-16T03:20:10.800Z,12.70
2022-11-16T03:24:14.031Z,12.70
2022-11-16T03:28:24.879Z,12.60
2022-11-16T03:32:30.045Z,12.50
2022-11-16T03:36:36.127Z,12.50
2022-11-16T03:44:42.488Z,12.40
2022-11-16T03:48:45.484Z,12.40
2022-11-16T03:52:49.759Z,12.30
2022-11-16T03:56:52.638Z,12.30
2022-11-16T04:00:55.534Z,12.20
2022-11-16T04:05:15.627Z,12.20
2022-11-16T04:09:37.273Z,12.10
2022-11-16T04:13:57.373Z,12.10
2022-11-16T04:18:17.343Z,12.00
2022-11-16T04:22:40.121Z,12.00
2022-11-16T04:27:03.114Z,11.90
2022-11-16T04:31:23.780Z,11.90
2022-11-16T04:35:43.863Z,11.90
2022-11-16T04:39:46.712Z,11.80
2022-11-16T04:43:50.945Z,11.80
2022-11-16T04:47:54.120Z,11.70
2022-11-16T04:51:57.122Z,11.70
2022-11-16T04:56:01.087Z,11.70
2022-11-16T05:00:07.841Z,11.70
2022-11-16T05:04:10.878Z,11.70
2022-11-16T05:08:13.720Z,11.60
2022-11-16T05:12:18.079Z,11.60
2022-11-16T05:16:22.330Z,11.60
2022-11-16T05:20:42.720Z,11.50
2022-11-16T05:24:45.598Z,11.50
2022-11-16T05:28:48.449Z,11.50
2022-11-16T05:32:52.690Z,11.50
2022-11-16T05:36:55.890Z,11.40
2022-11-16T05:40:58.781Z,11.40
2022-11-16T05:45:01.602Z,11.40
2022-11-16T05:49:08.415Z,11.40
2022-11-16T05:53:11.481Z,11.30
2022-11-16T05:57:15.445Z,11.30
2022-11-16T06:01:38.584Z,11.30
2022-11-16T06:05:42.826Z,11.30
2022-11-16T06:10:07.122Z,11.30
2022-11-16T06:14:10.019Z,11.30
2022-11-16T06:18:12.896Z,11.30
2022-11-16T06:22:17.140Z,11.30
2022-11-16T06:26:20.019Z,11.30
2022-11-16T06:30:22.881Z,11.30
2022-11-16T06:34:27.799Z,11.30
2022-11-16T06:38:32.633Z,11.30
2022-11-16T06:42:38.034Z,11.20
2022-11-16T06:46:40.877Z,11.30
2022-11-16T06:50:44.049Z,11.20
2022-11-16T06:54:48.319Z,11.20
2022-11-16T06:58:53.547Z,11.20
2022-11-16T07:02:56.654Z,11.20
2022-11-16T07:07:00.228Z,11.20
2022-11-16T07:11:05.448Z,11.20
2022-11-16T07:15:08.836Z,11.20
2022-11-16T07:19:11.784Z,11.20
2022-11-16T07:23:14.645Z,11.20
2022-11-16T07:27:18.853Z,11.20
2022-11-16T07:31:21.745Z,11.20
2022-11-16T07:35:24.570Z,11.20
2022-11-16T07:39:27.397Z,11.20
2022-11-16T07:43:32.714Z,11.20
2022-11-16T07:47:36.645Z,11.20
2022-11-16T07:51:39.508Z,11.20
2022-11-16T07:55:42.386Z,11.10
2022-11-16T07:59:46.685Z,11.10
2022-11-16T08:03:53.632Z,11.10
2022-11-16T08:07:56.450Z,11.10
2022-11-16T08:11:59.511Z,11.20
2022-11-16T08:16:04.175Z,11.10
2022-11-16T08:20:08.355Z,11.10
2022-11-16T08:24:11.333Z,11.10
2022-11-16T08:28:14.554Z,11.10
2022-11-16T08:32:20.844Z,11.10
2022-11-16T08:36:23.735Z,11.10
2022-11-16T08:40:30.778Z,11.20
2022-11-16T08:44:33.669Z,11.20
2022-11-16T08:48:38.492Z,11.20
2022-11-16T08:52:41.421Z,11.20
2022-11-16T08:56:44.299Z,11.20
2022-11-16T09:00:47.117Z,11.20
2022-11-16T09:04:51.359Z,11.20
2022-11-16T09:08:54.470Z,11.30
2022-11-16T09:12:59.358Z,11.30
2022-11-16T09:17:02.301Z,11.30
2022-11-16T09:21:06.733Z,11.30
2022-11-16T09:25:11.112Z,11.30
2022-11-16T09:29:14.909Z,11.30
2022-11-16T09:33:18.052Z,11.30
2022-11-16T09:37:22.326Z,11.20
2022-11-16T09:41:34.916Z,11.20
2022-11-16T09:45:42.719Z,11.20
2022-11-16T09:49:48.625Z,11.20
2022-11-16T09:53:55.264Z,11.10
2022-11-16T09:58:00.545Z,11.10
2022-11-16T10:02:06.330Z,11.10
2022-11-16T10:06:12.564Z,11.00
2022-11-16T10:10:17.829Z,11.00
2022-11-16T10:14:42.257Z,11.00
2022-11-16T10:18:49.135Z,10.90
2022-11-16T10:22:55.140Z,10.90
2022-11-16T10:27:05.165Z,10.90
2022-11-16T10:31:13.841Z,10.90
2022-11-16T10:35:18.046Z,10.80
2022-11-16T10:39:21.255Z,10.80
2022-11-16T10:43:26.729Z,10.80
2022-11-16T10:47:34.743Z,10.80
2022-11-16T10:51:37.639Z,10.70
2022-11-16T10:55:40.486Z,10.70
2022-11-16T10:59:45.732Z,10.60
2022-11-16T11:03:50.283Z,10.60
2022-11-16T11:08:01.647Z,10.60
2022-11-16T11:12:31.398Z,10.60
2022-11-16T11:16:35.600Z,10.50
2022-11-16T11:20:44.305Z,10.50
2022-11-16T11:24:49.844Z,10.50
2022-11-16T11:28:52.742Z,10.50
2022-11-16T11:32:57.363Z,10.50
2022-11-16T11:37:02.293Z,10.50
2022-11-16T11:41:06.139Z,10.50
2022-11-16T11:45:33.984Z,10.50
2022-11-16T11:49:40.658Z,10.50
2022-11-16T11:53:46.945Z,10.50
2022-11-16T11:57:53.060Z,10.40
2022-11-16T12:02:02.366Z,10.40
2022-11-16T12:06:30.149Z,10.40
2022-11-16T12:10:38.706Z,10.40
2022-11-16T12:14:52.620Z,10.40
2022-11-16T12:19:05.034Z,10.40
2022-11-16T12:23:28.515Z,10.40
2022-11-16T12:27:38.577Z,10.30
2022-11-16T12:31:49.476Z,10.30
2022-11-16T12:36:01.119Z,10.30
2022-11-16T12:40:17.273Z,10.30
2022-11-16T12:44:41.352Z,10.30
2022-11-16T12:48:59.183Z,10.30
2022-11-16T12:53:12.330Z,10.20
2022-11-16T12:57:19.585Z,10.30
2022-11-16T13:01:26.916Z,10.20
2022-11-16T13:05:34.737Z,10.20
2022-11-16T13:09:41.431Z,10.20
2022-11-16T13:13:51.405Z,10.20
2022-11-16T13:18:06.254Z,10.20
2022-11-16T13:22:13.765Z,10.20
2022-11-16T13:26:20.413Z,10.30
2022-11-16T13:30:35.878Z,10.30
2022-11-16T13:34:41.082Z,10.30
2022-11-16T13:38:50.811Z,10.30
2022-11-16T13:43:16.772Z,10.30
2022-11-16T13:47:22.443Z,10.30
2022-11-16T13:51:26.716Z,10.30
2022-11-16T13:55:30.901Z,10.30
2022-11-16T13:59:35.675Z,10.20
2022-11-16T14:03:41.891Z,10.20
2022-11-16T14:07:49.644Z,10.10
2022-11-16T14:11:52.611Z,10.00
2022-11-16T14:16:27.678Z,10.00
2022-11-16T14:20:44.144Z,10.00
2022-11-16T14:24:50.471Z,9.90
2022-11-16T14:29:11.008Z,9.90
2022-11-16T14:33:15.304Z,9.80
2022-11-16T14:37:31.004Z,9.80
2022-11-16T14:41:33.834Z,9.70
2022-11-16T14:45:38.431Z,9.70
2022-11-16T14:49:47.587Z,9.70
2022-11-16T14:53:54.737Z,9.70
2022-11-16T14:58:11.034Z,9.60
2022-11-16T15:02:17.136Z,9.60
2022-11-16T15:06:20.241Z,9.50
2022-11-16T15:10:27.178Z,9.50
2022-11-16T15:14:32.359Z,9.50
2022-11-16T15:18:35.606Z,9.50
2022-11-16T15:22:40.770Z,9.40
2022-11-16T15:26:45.014Z,9.40
2022-11-16T15:30:50.578Z,9.40
2022-11-16T15:34:54.374Z,9.30
2022-11-16T15:38:57.789Z,9.30
2022-11-16T15:43:03.644Z,9.20
2022-11-16T15:47:06.570Z,9.20
2022-11-16T15:51:14.995Z,9.10
2022-11-16T15:55:25.456Z,9.10
2022-11-16T15:59:32.627Z,9.10
2022-11-16T16:03:36.931Z,9.00
2022-11-16T16:07:46.744Z,9.00
2022-11-16T16:11:52.221Z,9.00
2022-11-16T16:16:10.210Z,9.00
2022-11-16T16:20:19.251Z,8.90
2022-11-16T16:24:36.525Z,8.90
2022-11-16T16:28:39.493Z,8.90
2022-11-16T16:32:42.422Z,8.80
2022-11-16T16:36:46.697Z,8.80
2022-11-16T16:40:49.758Z,8.80
2022-11-16T16:44:52.991Z,8.70
2022-11-16T16:48:55.919Z,8.70
2022-11-16T16:53:00.250Z,8.60
2022-11-16T16:57:03.129Z,8.60
2022-11-16T17:01:06.209Z,8.60
2022-11-16T17:05:11.002Z,8.60
2022-11-16T17:09:15.247Z,8.60
2022-11-16T17:13:18.093Z,8.60
2022-11-16T17:17:21.483Z,8.60
2022-11-16T17:21:24.413Z,8.50
2022-11-16T17:25:30.239Z,8.50
2022-11-16T17:29:33.174Z,8.50
2022-11-16T17:33:36.639Z,8.50
2022-11-16T17:37:39.798Z,8.50
2022-11-16T17:41:44.052Z,8.50
2022-11-16T17:45:47.950Z,8.50
2022-11-16T17:49:50.846Z,8.50
2022-11-16T17:53:53.830Z,8.50
2022-11-16T17:57:59.060Z,8.50
2022-11-16T18:02:01.932Z,8.50
2022-11-16T18:06:06.019Z,8.50
2022-11-16T18:10:09.655Z,8.50
2022-11-16T18:14:13.935Z,8.50
2022-11-16T18:18:18.007Z,8.50
2022-11-16T18:22:22.660Z,8.50
2022-11-16T18:26:26.199Z,8.50
2022-11-16T18:30:31.158Z,8.60
2022-11-16T18:34:34.643Z,8.60
2022-11-16T18:38:38.185Z,8.60
2022-11-16T18:42:41.938Z,8.60
2022-11-16T18:46:46.579Z,8.60
2022-11-16T18:50:49.926Z,8.60
2022-11-16T18:54:52.939Z,8.60
2022-11-16T18:58:56.259Z,8.60
2022-11-16T19:03:01.001Z,8.60
2022-11-16T19:07:03.995Z,8.60
2022-11-16T19:11:07.742Z,8.70
2022-11-16T19:15:15.742Z,8.60
2022-11-16T19:19:21.711Z,8.60
2022-11-16T19:23:24.666Z,8.60
2022-11-16T19:27:28.033Z,8.60
2022-11-16T19:31:32.553Z,8.60
2022-11-16T19:35:37.709Z,8.60
2022-11-16T19:39:41.124Z,8.60
2022-11-16T19:43:49.232Z,8.60
2022-11-16T19:48:00.319Z,8.60
2022-11-16T19:52:05.207Z,8.60
2022-11-16T19:56:09.830Z,8.60
2022-11-16T20:00:13.483Z,8.60
2022-11-16T20:04:16.406Z,8.60
2022-11-16T20:08:20.650Z,8.60
2022-11-16T20:12:23.627Z,8.60
2022-11-16T20:16:27.354Z,8.60
2022-11-16T20:20:30.202Z,8.60
2022-11-16T20:24:34.503Z,8.60
2022-11-16T20:28:37.730Z,8.60
2022-11-16T20:32:40.567Z,8.60
2022-11-16T20:36:44.417Z,8.60
2022-11-16T20:40:48.665Z,8.50
2022-11-16T20:44:51.548Z,8.50
2022-11-16T20:48:54.594Z,8.50
2022-11-16T20:52:57.543Z,8.50
2022-11-16T20:57:01.872Z,8.50
2022-11-16T21:01:05.721Z,8.50
2022-11-16T21:05:10.166Z,8.50
2022-11-16T21:09:15.927Z,8.50
2022-11-16T21:13:38.497Z,8.50
2022-11-16T21:17:41.443Z,8.50
2022-11-16T21:21:44.338Z,8.50
2022-11-16T21:25:48.276Z,8.50
2022-11-16T21:29:52.491Z,8.50
2022-11-16T21:33:56.723Z,8.40
2022-11-16T21:38:02.542Z,8.40
2022-11-16T21:42:05.755Z,8.40
2022-11-16T21:46:12.633Z,8.40
2022-11-16T21:50:32.224Z,8.30
2022-11-16T21:54:55.969Z,8.30
2022-11-16T21:58:59.086Z,8.30
2022-11-16T22:03:03.384Z,8.30
2022-11-16T22:07:31.374Z,8.30
2022-11-16T22:11:34.289Z,8.30
2022-11-16T22:15:37.132Z,8.30
2022-11-16T22:19:41.453Z,8.30
2022-11-16T22:23:44.388Z,8.30
2022-11-16T22:28:13.781Z,8.30
2022-11-16T22:32:11.359Z,8.30
2022-11-16T22:36:15.687Z,8.30
2022-11-16T22:40:18.675Z,8.30
2022-11-16T22:44:21.575Z,8.30
2022-11-16T22:48:24.400Z,8.30
2022-11-16T22:52:28.692Z,8.30
2022-11-16T22:56:32.398Z,8.30
2022-11-16T23:00:40.537Z,8.30
2022-11-16T23:04:44.900Z,8.30
2022-11-16T23:08:49.376Z,8.20
2022-11-16T23:13:09.427Z,8.20
2022-11-16T23:17:12.342Z,8.20
2022-11-16T23:21:32.463Z,8.20
2022-11-16T23:25:54.104Z,8.20
2022-11-16T23:29:57.009Z,8.20
2022-11-16T23:33:59.951Z,8.20
2022-11-16T23:38:03.997Z,8.10
2022-11-16T23:42:26.437Z,8.10
2022-11-16T23:46:30.052Z,8.10
2022-11-16T23:50:32.886Z,8.00
2022-11-16T23:58:40.310Z,8.00
